Cape Balder — V7KA5 — position and weather

sailwx.info

Track history (hours):
 
Tides and Currents Weather Stations Pressure Air Temp Water Temp Dewpoint Dewpoint Depression Visibility Wind Speed Wind Dir Waves Ship Positions

Cape Balder

Last reported at 2016-Aug-18 00:33 UTC. Time now 2016-Aug-28 05:10 UTC.
Position N 02°01' E 102°10'.
Warning: this ship's position is 10 days out of date.

Length 274 m; draft 9 m.

Type: Ship. MMSI: 538005854.

Date/timePositionNaut miles runAvg speedWind from/ knotsBaromVisibWave heightAir tempDewpointWater temp
2016-Aug-18 00:33N 02°01' E 102°10'1010.3
2016-Aug-17 23:33N 01°55' E 102°19'1110.7
2016-Aug-17 22:32N 01°50' E 102°28'1211.8
2016-Aug-17 21:32N 01°45' E 102°39'6212.5
2016-Aug-17 16:33N 01°12' E 103°32'7 7.3
2016-Aug-17 15:33N 01°10' E 103°39'4 4.2
2016-Aug-17 14:32N 01°08' E 103°35'  
2016-Aug-14 09:21N 01°41' E 102°42'1511.6
2016-Aug-14 08:06N 01°47' E 102°28'713.1
2016-Aug-14 07:33N 01°50' E 102°22'  
Track history (hours):
 
Tides and Currents Weather Stations Pressure Air Temp Water Temp Dewpoint Dewpoint Depression Visibility Wind Speed Wind Dir Waves Ship Positions

Cape Balder

Last reported at 2016-Aug-18 00:33 UTC. Time now 2016-Aug-28 05:10 UTC.
Position N 02°01' E 102°10'.
Warning: this ship's position is 10 days out of date.

Length 274 m; draft 9 m.

Type: Ship. MMSI: 538005854.

Date/timePositionNaut miles runAvg speedWind from/ knotsBaromVisibWave heightAir tempDewpointWater temp
2016-Aug-18 00:33N 02°01' E 102°10'1010.3
2016-Aug-17 23:33N 01°55' E 102°19'1110.7
2016-Aug-17 22:32N 01°50' E 102°28'1211.8
2016-Aug-17 21:32N 01°45' E 102°39'6212.5
2016-Aug-17 16:33N 01°12' E 103°32'7 7.3
2016-Aug-17 15:33N 01°10' E 103°39'4 4.2
2016-Aug-17 14:32N 01°08' E 103°35'  
2016-Aug-14 09:21N 01°41' E 102°42'1511.6
2016-Aug-14 08:06N 01°47' E 102°28'713.1
2016-Aug-14 07:33N 01°50' E 102°22'  

Dump ship's entire track history